createdAt,value
2023-03-24T00:01:36.218Z,2.33
2023-03-24T00:05:38.320Z,2.67
2023-03-24T00:09:41.747Z,2.33
2023-03-24T00:13:43.247Z,2.58
2023-03-24T00:17:46.917Z,2.38
2023-03-24T00:21:48.429Z,2.55
2023-03-24T00:26:02.526Z,2.33
2023-03-24T00:30:09.841Z,2.33
2023-03-24T00:34:11.466Z,2.60
2023-03-24T00:38:13.137Z,2.08
2023-03-24T00:42:14.641Z,2.17
2023-03-24T00:46:27.562Z,2.60
2023-03-24T00:50:33.409Z,2.20
2023-03-24T00:54:35.182Z,1.98
2023-03-24T00:58:36.648Z,2.70
2023-03-24T01:02:38.320Z,2.00
2023-03-24T01:06:41.120Z,2.20
2023-03-24T01:10:50.490Z,1.90
2023-03-24T01:14:52.851Z,2.30
2023-03-24T01:18:54.316Z,2.10
2023-03-24T01:22:55.775Z,2.33
2023-03-24T01:26:57.287Z,2.53
2023-03-24T01:30:58.777Z,2.35
2023-03-24T01:35:00.374Z,2.70
2023-03-24T01:39:02.164Z,2.47
2023-03-24T01:43:05.050Z,2.65
2023-03-24T01:47:08.195Z,2.80
2023-03-24T01:51:24.868Z,2.55
2023-03-24T01:55:27.787Z,2.63
2023-03-24T01:59:31.943Z,2.10
2023-03-24T02:03:38.623Z,2.38
2023-03-24T02:07:40.097Z,2.00
2023-03-24T02:11:42.507Z,2.03
2023-03-24T02:16:30.049Z,2.03
2023-03-24T02:20:47.203Z,2.35
2023-03-24T02:24:55.209Z,2.10
2023-03-24T02:29:32.264Z,2.22
2023-03-24T02:34:11.246Z,2.08
2023-03-24T02:38:18.747Z,2.05
2023-03-24T02:42:53.081Z,1.95
2023-03-24T02:47:26.859Z,2.10
2023-03-24T02:51:48.320Z,2.20
2023-03-24T02:56:11.770Z,2.03
2023-03-24T03:00:34.915Z,2.25
2023-03-24T03:05:00.934Z,2.10
2023-03-24T03:09:08.634Z,2.20
2023-03-24T03:13:24.159Z,1.95
2023-03-24T03:17:32.183Z,2.53
2023-03-24T03:21:39.876Z,2.20
2023-03-24T03:25:46.490Z,2.38
2023-03-24T03:29:54.340Z,2.55
2023-03-24T03:34:24.766Z,2.28
2023-03-24T03:38:41.835Z,2.15
2023-03-24T03:42:44.717Z,2.42
2023-03-24T03:46:46.344Z,2.28
2023-03-24T03:50:48.455Z,2.75
2023-03-24T03:54:51.361Z,3.40
2023-03-24T03:58:53.418Z,2.00
2023-03-24T04:03:12.970Z,3.35
2023-03-24T04:07:30.814Z,3.50
2023-03-24T04:11:50.904Z,3.83
2023-03-24T04:16:00.272Z,3.75
2023-03-24T04:20:12.429Z,3.42
2023-03-24T04:24:29.189Z,2.58
2023-03-24T04:29:10.433Z,2.42
2023-03-24T04:33:28.764Z,3.53
2023-03-24T04:37:38.189Z,4.35
2023-03-24T04:45:49.548Z,3.83
2023-03-24T04:49:51.108Z,3.65
2023-03-24T04:53:52.617Z,3.85
2023-03-24T04:57:54.138Z,3.65
2023-03-24T05:01:55.620Z,3.90
2023-03-24T05:05:58.415Z,3.50
2023-03-24T05:09:59.937Z,3.50
2023-03-24T05:14:01.469Z,3.13
2023-03-24T05:18:04.689Z,3.53
2023-03-24T05:22:06.395Z,3.53
2023-03-24T05:26:07.948Z,3.75
2023-03-24T05:30:10.072Z,4.35
2023-03-24T05:34:11.583Z,3.35
2023-03-24T05:38:13.731Z,2.55
2023-03-24T05:42:17.036Z,3.25
2023-03-24T05:46:18.501Z,3.15
2023-03-24T05:50:19.935Z,3.78
2023-03-24T05:54:22.280Z,2.10
2023-03-24T05:58:24.101Z,3.28
2023-03-24T06:02:25.639Z,3.63
2023-03-24T06:06:28.625Z,3.33
2023-03-24T06:10:30.072Z,3.33
2023-03-24T06:14:33.577Z,3.40
2023-03-24T06:18:35.282Z,2.63
2023-03-24T06:22:37.260Z,3.55
2023-03-24T06:26:42.180Z,3.33
2023-03-24T06:30:44.684Z,3.38
2023-03-24T06:34:46.347Z,3.38
2023-03-24T06:38:47.786Z,3.22
2023-03-24T06:42:49.767Z,3.20
2023-03-24T06:46:51.662Z,3.60
2023-03-24T06:50:54.597Z,2.60
2023-03-24T06:54:57.536Z,2.50
2023-03-24T06:58:59.030Z,3.05
2023-03-24T07:03:02.472Z,3.30
2023-03-24T07:07:25.887Z,2.83
2023-03-24T07:11:25.591Z,3.30
2023-03-24T07:15:27.527Z,3.10
2023-03-24T07:19:29.311Z,2.75
2023-03-24T07:23:32.459Z,2.22
2023-03-24T07:27:35.139Z,2.40
2023-03-24T07:31:38.619Z,2.53
2023-03-24T07:35:41.043Z,2.50
2023-03-24T07:39:42.647Z,2.40
2023-03-24T07:43:44.151Z,2.30
2023-03-24T07:47:46.732Z,2.38
2023-03-24T07:51:48.313Z,3.25
2023-03-24T07:55:49.980Z,2.53
2023-03-24T07:59:51.621Z,2.45
2023-03-24T08:03:56.117Z,2.85
2023-03-24T08:07:58.452Z,2.90
2023-03-24T08:12:06.926Z,2.83
2023-03-24T08:16:15.627Z,3.38
2023-03-24T08:20:19.420Z,2.90
2023-03-24T08:24:20.896Z,2.47
2023-03-24T08:28:22.366Z,3.22
2023-03-24T08:32:23.872Z,2.70
2023-03-24T08:36:26.548Z,3.60
2023-03-24T08:40:29.128Z,3.42
2023-03-24T08:44:32.402Z,3.85
2023-03-24T08:48:37.079Z,3.55
2023-03-24T08:52:38.925Z,3.42
2023-03-24T08:56:40.841Z,3.60
2023-03-24T09:00:44.305Z,3.42
2023-03-24T09:04:47.178Z,2.95
2023-03-24T09:08:48.836Z,3.38
2023-03-24T09:12:50.412Z,2.90
2023-03-24T09:16:52.515Z,1.98
2023-03-24T09:20:54.115Z,2.95
2023-03-24T09:24:55.791Z,3.35
2023-03-24T09:28:57.325Z,3.22
2023-03-24T09:32:59.067Z,2.65
2023-03-24T09:37:01.459Z,3.33
2023-03-24T09:41:04.009Z,3.13
2023-03-24T09:45:15.914Z,2.80
2023-03-24T09:49:24.684Z,2.70
2023-03-24T09:53:54.905Z,3.03
2023-03-24T09:58:06.063Z,2.75
2023-03-24T10:02:16.003Z,2.05
2023-03-24T10:06:23.413Z,3.63
2023-03-24T10:10:44.171Z,3.28
2023-03-24T10:15:06.907Z,2.97
2023-03-24T10:19:28.656Z,3.10
2023-03-24T10:23:54.156Z,2.45
2023-03-24T10:28:24.800Z,1.92
2023-03-24T10:32:29.657Z,1.77
2023-03-24T10:36:32.028Z,1.98
2023-03-24T10:40:33.999Z,2.33
2023-03-24T10:44:36.246Z,1.90
2023-03-24T10:48:40.513Z,2.00
2023-03-24T10:52:46.461Z,1.80
2023-03-24T10:57:00.552Z,1.30
2023-03-24T11:01:03.136Z,1.45
2023-03-24T11:05:15.706Z,1.48
2023-03-24T11:09:22.198Z,1.75
2023-03-24T11:13:23.590Z,1.90
2023-03-24T11:17:25.265Z,1.80
2023-03-24T11:21:29.680Z,1.45
2023-03-24T11:25:37.979Z,1.60
2023-03-24T11:29:40.286Z,1.52
2023-03-24T11:33:51.471Z,1.58
2023-03-24T11:37:53.003Z,1.50
2023-03-24T11:42:16.462Z,1.33
2023-03-24T11:46:20.813Z,1.42
2023-03-24T11:50:38.474Z,1.27
2023-03-24T11:54:40.237Z,1.40
2023-03-24T11:58:56.003Z,1.15
2023-03-24T12:03:16.259Z,1.75
2023-03-24T12:07:39.493Z,1.92
2023-03-24T12:12:08.209Z,1.80
2023-03-24T12:16:44.737Z,1.70
2023-03-24T12:21:04.608Z,1.52
2023-03-24T12:29:15.786Z,1.60
2023-03-24T12:33:45.833Z,2.40
2023-03-24T12:37:59.712Z,1.95
2023-03-24T12:42:04.365Z,1.85
2023-03-24T12:46:40.615Z,2.00
2023-03-24T12:50:54.955Z,1.70
2023-03-24T12:55:18.007Z,1.58
2023-03-24T12:59:35.918Z,1.77
2023-03-24T13:03:42.621Z,1.33
2023-03-24T13:07:47.471Z,1.58
2023-03-24T13:11:51.957Z,1.42
2023-03-24T13:16:01.249Z,1.77
2023-03-24T13:20:06.982Z,1.75
2023-03-24T13:24:14.809Z,1.25
2023-03-24T13:28:24.252Z,1.17
2023-03-24T13:32:33.495Z,1.42
2023-03-24T13:36:55.817Z,1.02
2023-03-24T13:40:57.702Z,1.40
2023-03-24T13:45:01.397Z,1.60
2023-03-24T13:49:06.930Z,1.20
2023-03-24T13:53:16.128Z,0.52
2023-03-24T13:57:20.619Z,1.52
2023-03-24T14:01:37.807Z,1.55
2023-03-24T14:05:56.561Z,1.30
2023-03-24T14:10:23.371Z,1.35
2023-03-24T14:14:27.004Z,1.40
2023-03-24T14:18:29.045Z,1.25
2023-03-24T14:22:34.490Z,0.98
2023-03-24T14:26:35.957Z,1.10
2023-03-24T14:30:40.748Z,0.88
2023-03-24T14:35:03.661Z,1.30
2023-03-24T14:39:39.855Z,1.63
2023-03-24T14:43:41.496Z,1.35
2023-03-24T14:47:44.189Z,1.50
2023-03-24T14:52:13.661Z,1.17
2023-03-24T14:56:22.391Z,0.90
2023-03-24T15:00:45.525Z,0.82
2023-03-24T15:05:21.980Z,1.45
2023-03-24T15:09:24.273Z,1.50
2023-03-24T15:13:53.587Z,1.17
2023-03-24T15:17:55.228Z,1.05
2023-03-24T15:22:00.303Z,1.00
2023-03-24T15:26:01.787Z,1.40
2023-03-24T15:30:04.769Z,1.60
2023-03-24T15:34:27.910Z,1.20
2023-03-24T15:38:32.422Z,1.33
2023-03-24T15:42:41.251Z,1.55
2023-03-24T15:46:44.043Z,1.48
2023-03-24T15:51:02.426Z,1.35
2023-03-24T15:55:28.061Z,1.63
2023-03-24T15:59:35.770Z,1.10
2023-03-24T16:03:37.301Z,1.88
2023-03-24T16:07:40.550Z,0.93
2023-03-24T16:11:42.907Z,1.58
2023-03-24T16:16:07.212Z,1.73
2023-03-24T16:20:19.955Z,1.70
2023-03-24T16:24:21.886Z,1.65
2023-03-24T16:28:27.400Z,1.67
2023-03-24T16:32:28.895Z,1.10
2023-03-24T16:36:30.400Z,2.03
2023-03-24T16:40:39.278Z,1.92
2023-03-24T16:44:40.763Z,1.92
2023-03-24T16:48:44.585Z,2.13
2023-03-24T16:52:46.006Z,1.80
2023-03-24T16:56:47.594Z,2.22
2023-03-24T17:00:49.476Z,1.83
2023-03-24T17:04:52.198Z,2.20
2023-03-24T17:08:56.930Z,2.10
2023-03-24T17:12:58.581Z,1.73
2023-03-24T17:17:04.225Z,1.60
2023-03-24T17:21:13.381Z,2.13
2023-03-24T17:25:17.893Z,1.60
2023-03-24T17:29:19.470Z,2.03
2023-03-24T17:33:20.971Z,2.58
2023-03-24T17:37:22.465Z,2.20
2023-03-24T17:41:23.912Z,2.15
2023-03-24T17:45:25.496Z,3.60
2023-03-24T17:49:27.018Z,2.92
2023-03-24T17:53:28.565Z,2.45
2023-03-24T17:57:31.129Z,2.90
2023-03-24T18:01:35.201Z,3.30
2023-03-24T18:05:36.780Z,2.72
2023-03-24T18:09:38.309Z,3.30
2023-03-24T18:13:40.218Z,4.28
2023-03-24T18:17:41.727Z,2.70
2023-03-24T18:21:44.316Z,3.63
2023-03-24T18:25:45.719Z,7.40
2023-03-24T18:29:47.489Z,8.38
2023-03-24T18:33:50.304Z,6.85
2023-03-24T18:37:51.813Z,5.47
2023-03-24T18:41:53.770Z,4.53
2023-03-24T18:45:55.319Z,4.28
2023-03-24T18:49:56.813Z,4.20
2023-03-24T18:53:58.459Z,4.45
2023-03-24T18:58:00.149Z,4.10
2023-03-24T19:02:01.636Z,4.22
2023-03-24T19:06:06.842Z,3.67
2023-03-24T19:10:08.640Z,3.08
2023-03-24T19:14:10.560Z,3.40
2023-03-24T19:18:12.650Z,3.20
2023-03-24T19:22:21.389Z,3.15
2023-03-24T19:26:23.211Z,3.80
2023-03-24T19:30:24.902Z,3.80
2023-03-24T19:34:26.767Z,3.03
2023-03-24T19:38:29.088Z,3.00
2023-03-24T19:42:33.312Z,2.67
2023-03-24T19:46:35.492Z,3.33
2023-03-24T19:50:37.867Z,2.78
2023-03-24T19:54:39.384Z,4.45
2023-03-24T19:58:41.561Z,4.30
2023-03-24T20:02:43.119Z,5.50
2023-03-24T20:06:45.878Z,4.30
2023-03-24T20:10:47.486Z,4.03
2023-03-24T20:14:49.117Z,3.50
2023-03-24T20:18:50.560Z,3.78
2023-03-24T20:22:52.149Z,3.90
2023-03-24T20:26:53.602Z,4.72
2023-03-24T20:31:02.925Z,3.70
2023-03-24T20:35:05.573Z,3.30
2023-03-24T20:39:07.372Z,3.70
2023-03-24T20:43:09.485Z,4.45
2023-03-24T20:47:11.880Z,3.10
2023-03-24T20:51:13.469Z,3.20
2023-03-24T20:55:15.040Z,3.08
2023-03-24T20:59:17.012Z,3.42
2023-03-24T21:03:18.574Z,2.58
2023-03-24T21:07:20.554Z,3.47
2023-03-24T21:11:22.116Z,3.60
2023-03-24T21:15:25.028Z,3.03
2023-03-24T21:19:27.398Z,3.03
2023-03-24T21:23:32.582Z,3.20
2023-03-24T21:27:34.451Z,2.70
2023-03-24T21:31:36.034Z,3.58
2023-03-24T21:35:37.658Z,3.25
2023-03-24T21:39:39.404Z,3.38
2023-03-24T21:43:41.006Z,3.55
2023-03-24T21:47:45.966Z,3.42
2023-03-24T21:51:47.824Z,4.20
2023-03-24T21:56:04.590Z,3.67
2023-03-24T22:00:14.340Z,4.38
2023-03-24T22:04:17.513Z,3.38
2023-03-24T22:08:22.839Z,3.28
2023-03-24T22:12:24.429Z,3.60
2023-03-24T22:16:25.953Z,3.28
2023-03-24T22:20:31.950Z,3.80
2023-03-24T22:24:34.228Z,3.25
2023-03-24T22:28:36.970Z,3.03
2023-03-24T22:32:38.686Z,3.22
2023-03-24T22:36:40.353Z,2.60
2023-03-24T22:40:43.534Z,2.40
2023-03-24T22:44:45.217Z,2.42
2023-03-24T22:48:46.855Z,2.35
2023-03-24T22:52:48.810Z,2.97
2023-03-24T22:56:50.813Z,2.38
2023-03-24T23:00:56.732Z,1.98
2023-03-24T23:04:58.257Z,2.15
2023-03-24T23:09:00.199Z,2.17
2023-03-24T23:13:01.720Z,2.00
2023-03-24T23:17:03.211Z,1.70
2023-03-24T23:21:08.243Z,1.77
2023-03-24T23:25:09.973Z,1.98
2023-03-24T23:29:13.299Z,1.90
2023-03-24T23:33:15.014Z,1.80
2023-03-24T23:37:18.268Z,1.80
2023-03-24T23:41:20.705Z,1.50
2023-03-24T23:45:22.567Z,2.15
2023-03-24T23:49:24.196Z,1.80
2023-03-24T23:53:26.660Z,1.33
2023-03-24T23:57:28.718Z,1.55
